»·PEaware :: 423MP L88-KSBP

423MP :: L88-KSBP

FLIGHT INFORMATION

Flight Status: Arrived
Operator: Unknown
More flights by this operator :: More flights under this callsign
Pilot: Michael P. (17418)
Aircraft: CESSNA 208 CARAVAN
(C208)
More flights by this aircraft type
Origin: L88 New Cuyama
United States
Destination: KSBP San Luis Co Regl
United States
More flights between these airports :: More routes between these airports
Route: L88 DIRECT KSBP
File this flight plan on PilotEdge
Remarks: c-2 flight
Altitude:
(Current/Filed)
8,500ft
Speed:
(Current/Filed)
120kts
Departed: 10-May-18 07:54 AM
Arrived: 10-May-18 08:18 AM
Distance/Time
Traveled:
50nm/0:24
Distance/Time
To Go:
Arrived

Flight Plot

Page will automatically refresh every two minutes.

Flight plan parsing failed; only flown route is shown


Map Options




Map Legend


Flown Route
Filed Route
Departure Airport
Arrival Airport
Navaid (VOR, NDB)
Fix

Horizontal Profiles

Position Reports

Time Latitude Longitude Heading Altitude Ground
Speed
10-May-18 07:41 34.939967 -119.693829 22 2208ft 0kts
10-May-18 07:42 34.939967 -119.693829 22 2208ft 0kts
10-May-18 07:43 34.939967 -119.693829 22 2208ft 0kts
10-May-18 07:44 34.939968 -119.693829 22 2208ft 0kts
10-May-18 07:45 34.939969 -119.693829 22 2208ft 0kts
10-May-18 07:46 34.939971 -119.693828 22 2208ft 0kts
10-May-18 07:47 34.939972 -119.693827 22 2208ft 0kts
10-May-18 07:48 34.939974 -119.693826 22 2208ft 0kts
10-May-18 07:49 34.939975 -119.693825 22 2208ft 0kts
10-May-18 07:50 34.939977 -119.693824 22 2208ft 0kts
10-May-18 07:51 34.939979 -119.693823 22 2208ft 0kts
10-May-18 07:52 34.940203 -119.693943 297 2208ft 9kts
10-May-18 07:53 34.940006 -119.694276 190 2208ft 0kts
10-May-18 07:54 34.933080 -119.677733 113 2604ft 103kts
10-May-18 07:55 34.951155 -119.670452 295 3578ft 128kts
10-May-18 07:56 34.965063 -119.712177 292 4513ft 134kts
10-May-18 07:57 34.978040 -119.754043 292 5414ft 130kts
10-May-18 07:58 34.991394 -119.793999 291 6313ft 124kts
10-May-18 07:59 34.996481 -119.834122 270 7209ft 120kts
10-May-18 08:00 35.008850 -119.871948 286 8113ft 120kts
10-May-18 08:01 35.017479 -119.914301 291 8516ft 144kts
10-May-18 08:02 35.035498 -119.961093 291 8501ft 156kts
10-May-18 08:03 35.049544 -120.011198 290 8500ft 156kts
10-May-18 08:04 35.066568 -120.060037 290 8500ft 156kts
10-May-18 08:05 35.081064 -120.109907 285 8500ft 156kts
10-May-18 08:06 35.094220 -120.161076 285 8082ft 158kts
10-May-18 08:07 35.111103 -120.212504 292 7323ft 164kts
10-May-18 08:08 35.130170 -120.261978 292 6617ft 157kts
10-May-18 08:09 35.141697 -120.308323 282 5603ft 135kts
10-May-18 08:10 35.150852 -120.353395 289 4642ft 136kts
10-May-18 08:11 35.163264 -120.396163 291 4378ft 146kts
10-May-18 08:12 35.176996 -120.441439 291 3552ft 136kts
10-May-18 08:13 35.190521 -120.483486 290 2746ft 130kts
10-May-18 08:14 35.198278 -120.526183 277 2104ft 130kts
10-May-18 08:15 35.203778 -120.569500 285 1429ft 125kts
10-May-18 08:16 35.217291 -120.606684 304 813ft 112kts
10-May-18 08:17 35.233980 -120.635070 304 243ft 90kts
10-May-18 08:18 35.239729 -120.644277 19 217ft 1kts
10-May-18 08:19 35.240015 -120.644179 0 217ft 9kts
10-May-18 08:20 35.241162 -120.645124 183 217ft 4kts
10-May-18 08:21 35.241009 -120.644465 67 217ft 0kts
10-May-18 08:22 35.241009 -120.644463 67 217ft 0kts
10-May-18 08:23 35.241009 -120.644463 67 217ft 0kts
10-May-18 08:24 35.241009 -120.644463 67 217ft 0kts
10-May-18 08:25 35.241009 -120.644463 67 217ft 0kts
10-May-18 08:26 35.241009 -120.644463 67 217ft 0kts
10-May-18 08:27 35.241009 -120.644463 67 217ft 0kts
10-May-18 08:28 35.241009 -120.644463 67 217ft 0kts
10-May-18 08:29 35.241010 -120.644461 67 217ft 0kts
10-May-18 08:30 35.241011 -120.644459 67 217ft 0kts
10-May-18 08:31 35.241012 -120.644456 67 217ft 0kts

Navigation Log

Ident Type
Flight plan parsing failed, navigation log unavailable